Time;durP1;ratioP1;P1;durP2;ratioP2;P2;SDS_P1;SDS_P2;PMS_P1;PMS_P2;Temp;Humidity;BMP_temperature;BMP_pressure;BME280_temperature;BME280_humidity;BME280_pressure;Samples;Min_cycle;Max_cycle;Signal;HPM_P1;HPM_P2
2022/05/02 00:01:47;;;;;;;9.43;8.25;;;;;;;15.88;59.46;101105.56;4915412;29;20494;-83
2022/05/02 00:04:14;;;;;;;9.05;8.05;;;;;;;16.07;59.61;101147.31;4931319;29;20055;-86
2022/05/02 00:06:41;;;;;;;10.30;9.30;;;;;;;15.74;59.87;101093.59;4915566;29;20300;-85
2022/05/02 00:09:08;;;;;;;9.18;8.32;;;;;;;15.90;59.63;101117.81;4915664;29;20387;-84
2022/05/02 00:11:34;;;;;;;9.32;8.48;;;;;;;15.93;59.58;101125.50;4932613;29;20056;-84
2022/05/02 00:14:01;;;;;;;12.23;8.65;;;;;;;15.68;59.96;101095.06;4915979;29;20059;-84
2022/05/02 00:16:28;;;;;;;10.02;9.02;;;;;;;15.76;60.05;101102.31;4933025;29;20059;-84
2022/05/02 00:18:54;;;;;;;9.35;8.45;;;;;;;15.81;60.18;101110.72;4932843;29;20078;-84
2022/05/02 00:21:21;;;;;;;9.98;9.07;;;;;;;15.85;60.03;101119.25;4915631;29;20098;-84
2022/05/02 00:23:48;;;;;;;9.60;8.70;;;;;;;15.68;60.15;101089.72;4932258;29;20132;-85
2022/05/02 00:26:14;;;;;;;10.57;9.68;;;;;;;15.86;61.10;101148.56;4915624;29;20047;-84
2022/05/02 00:28:41;;;;;;;10.88;9.85;;;;;;;15.83;60.63;101138.19;4932188;29;20055;-85
2022/05/02 00:31:08;;;;;;;11.55;10.52;;;;;;;15.61;60.08;101088.66;4915248;29;20048;-84
2022/05/02 00:33:34;;;;;;;10.95;9.95;;;;;;;15.76;60.25;101110.34;4915687;29;20056;-84
2022/05/02 00:36:01;;;;;;;11.57;10.02;;;;;;;15.51;60.31;101078.06;4932293;29;20505;-84
2022/05/02 00:38:28;;;;;;;10.70;9.70;;;;;;;15.77;60.89;101128.09;4915149;29;20057;-85
2022/05/02 00:40:56;;;;;;;10.68;9.77;;;;;;;15.70;60.82;101132.38;4931297;29;20047;-85
2022/05/02 00:43:22;;;;;;;10.45;9.50;;;;;;;15.44;60.53;101077.00;4914761;29;20048;-84
2022/05/02 00:45:49;;;;;;;10.68;9.68;;;;;;;15.51;60.82;101101.28;4914832;29;20052;-84
2022/05/02 00:48:16;;;;;;;10.25;9.30;;;;;;;15.66;61.39;101139.03;4915049;29;20473;-85
2022/05/02 00:50:44;;;;;;;10.63;9.52;;;;;;;14.95;61.00;101017.78;4914781;29;20510;-82
2022/05/02 00:53:18;;;;;;;10.90;9.88;;;;;;;14.64;61.00;100966.59;4911808;29;20059;-83
2022/05/02 00:55:45;;;;;;;10.15;9.25;;;;;;;15.56;60.85;101112.38;4911411;29;20052;-84
2022/05/02 00:58:16;;;;;;;9.85;9.05;;;;;;;15.60;60.88;101122.59;4911678;29;20059;-84
2022/05/02 01:00:43;;;;;;;10.65;9.65;;;;;;;15.56;61.27;101115.88;4911211;29;20044;-84
2022/05/02 01:03:12;;;;;;;9.98;9.15;;;;;;;15.57;61.53;101130.94;4912292;29;20056;-84
2022/05/02 01:08:33;;;;;;;10.25;9.27;;;;;;;15.58;61.26;101127.28;4912889;29;20434;-83
2022/05/02 01:11:01;;;;;;;10.75;9.65;;;;;;;15.51;60.73;101104.81;4921630;29;20179;-84
2022/05/02 01:13:32;;;;;;;11.00;8.88;;;;;;;15.42;60.92;101088.84;4913914;29;20059;-84
2022/05/02 01:15:59;;;;;;;10.63;8.57;;;;;;;15.11;61.10;101022.41;4914315;29;20139;-85
2022/05/02 01:18:26;;;;;;;9.60;8.38;;;;;;;15.63;61.01;101121.44;4931373;29;20083;-83
2022/05/02 01:20:52;;;;;;;10.15;9.15;;;;;;;15.55;60.69;101099.97;4914091;29;20304;-83
2022/05/02 01:23:19;;;;;;;9.88;8.88;;;;;;;15.69;60.75;101119.97;4914251;29;20050;-85
2022/05/02 01:25:46;;;;;;;9.65;8.70;;;;;;;15.66;60.71;101110.44;4914186;29;20055;-84
2022/05/02 01:28:13;;;;;;;10.13;9.05;;;;;;;15.64;60.49;101114.25;4913713;29;20054;-85
2022/05/02 01:30:40;;;;;;;8.93;8.13;;;;;;;15.27;60.88;101060.00;4916515;29;20048;-85
2022/05/02 01:33:09;;;;;;;9.48;8.57;;;;;;;15.20;60.77;101047.41;4919096;29;20055;-83
2022/05/02 01:35:36;;;;;;;9.00;7.97;;;;;;;15.64;60.67;101119.63;4913933;29;20048;-85
2022/05/02 01:38:02;;;;;;;9.00;8.10;;;;;;;15.72;60.66;101122.38;4913845;29;20494;-84
2022/05/02 01:40:29;;;;;;;9.95;8.18;;;;;;;15.50;60.62;101091.56;4913393;29;20433;-84
2022/05/02 01:42:56;;;;;;;9.45;8.55;;;;;;;15.51;60.64;101098.59;4913759;29;20044;-84
2022/05/02 01:45:22;;;;;;;9.43;8.48;;;;;;;15.50;60.76;101099.59;4911631;29;20051;-84
2022/05/02 01:47:49;;;;;;;10.30;8.77;;;;;;;15.69;60.49;101122.66;4931518;29;20052;-84
2022/05/02 01:50:16;;;;;;;10.20;8.88;;;;;;;15.60;61.24;101119.06;4914367;29;20047;-84
2022/05/02 01:52:43;;;;;;;9.50;8.65;;;;;;;15.42;61.11;101096.88;4927980;29;20044;-84
2022/05/02 01:55:09;;;;;;;9.18;8.27;;;;;;;15.50;61.29;101103.13;4913741;29;20098;-84
2022/05/02 01:57:36;;;;;;;10.25;9.15;;;;;;;14.79;61.19;101013.16;4914079;29;20051;-83
2022/05/02 02:00:04;;;;;;;9.53;8.63;;;;;;;15.37;61.43;101094.66;4929533;29;20043;-84
2022/05/02 02:02:30;;;;;;;12.00;10.15;;;;;;;15.45;61.20;101113.44;4939961;28;20056;-84
2022/05/02 02:07:44;;;;;;;10.75;9.65;;;;;;;15.40;61.45;101115.75;4908101;29;20043;-85
2022/05/02 02:10:11;;;;;;;10.70;9.75;;;;;;;15.14;61.20;101073.75;4913215;29;20338;-83
2022/05/02 02:12:37;;;;;;;11.13;9.60;;;;;;;14.52;61.65;100987.31;4913541;29;20223;-84
2022/05/02 02:15:05;;;;;;;11.07;9.98;;;;;;;15.25;61.71;101109.28;4920636;29;20055;-84
2022/05/02 02:17:32;;;;;;;10.13;9.07;;;;;;;15.06;61.42;101056.81;4904388;29;20131;-84
2022/05/02 02:19:59;;;;;;;11.00;10.00;;;;;;;15.17;61.56;101076.13;4916795;29;20052;-84
2022/05/02 02:22:26;;;;;;;10.23;9.15;;;;;;;15.03;61.82;101074.00;4911425;29;20064;-84
2022/05/02 02:24:53;;;;;;;9.98;9.07;;;;;;;14.88;61.97;101051.47;4894854;29;20056;-84
2022/05/02 02:27:20;;;;;;;10.43;9.32;;;;;;;15.16;61.79;101090.47;4894972;29;20052;-85
2022/05/02 02:29:46;;;;;;;11.07;9.85;;;;;;;15.21;61.59;101098.03;4895295;29;20378;-84
2022/05/02 02:32:13;;;;;;;11.05;10.05;;;;;;;15.02;61.93;101077.66;4894951;29;20040;-84
2022/05/02 02:34:40;;;;;;;12.52;10.45;;;;;;;15.14;61.88;101103.16;4915081;29;20052;-84
2022/05/02 02:37:06;;;;;;;11.48;10.27;;;;;;;14.83;61.68;101043.06;4912853;29;20047;-84
2022/05/02 02:39:33;;;;;;;11.23;10.10;;;;;;;14.96;61.69;101059.56;4913180;29;20074;-84
2022/05/02 02:42:00;;;;;;;10.90;9.75;;;;;;;14.82;61.00;101020.00;4912918;29;20395;-84
2022/05/02 02:44:27;;;;;;;12.55;10.32;;;;;;;15.17;60.97;101084.16;4929607;29;20145;-84
2022/05/02 02:46:53;;;;;;;11.27;10.18;;;;;;;15.01;61.73;101070.63;4912924;29;20051;-84
2022/05/02 02:49:20;;;;;;;10.18;9.27;;;;;;;15.03;62.10;101076.69;4913128;29;20062;-84
2022/05/02 02:51:47;;;;;;;11.30;10.20;;;;;;;14.99;61.59;101064.59;4929846;29;20056;-84
2022/05/02 02:54:14;;;;;;;11.73;10.30;;;;;;;15.08;61.38;101086.91;4912684;29;20081;-84
2022/05/02 02:56:40;;;;;;;10.88;9.85;;;;;;;15.01;61.79;101075.16;4929697;29;20052;-84
2022/05/02 02:59:07;;;;;;;12.57;9.85;;;;;;;15.08;61.68;101079.72;4913023;29;20127;-84
2022/05/02 03:01:35;;;;;;;10.90;9.90;;;;;;;15.00;61.49;101052.94;4912577;29;20055;-85
2022/05/02 03:06:50;;;;;;;10.68;9.68;;;;;;;14.97;61.95;101069.25;4899425;29;20043;-84
2022/05/02 03:09:16;;;;;;;11.65;10.52;;;;;;;14.80;61.64;101035.38;4912546;29;20044;-84
2022/05/02 03:11:43;;;;;;;11.35;10.05;;;;;;;15.07;61.64;101078.06;4912149;29;20056;-84
2022/05/02 03:14:10;;;;;;;11.73;10.52;;;;;;;15.04;62.03;101091.72;4912479;29;20044;-84
2022/05/02 03:16:36;;;;;;;11.30;10.02;;;;;;;15.07;61.79;101085.22;4929599;29;20058;-84
2022/05/02 03:19:03;;;;;;;11.90;10.70;;;;;;;14.92;62.18;101083.06;4912361;29;20048;-84
2022/05/02 03:21:30;;;;;;;11.05;9.98;;;;;;;15.03;62.09;101079.34;4929379;29;20071;-84
2022/05/02 03:23:57;;;;;;;13.02;10.57;;;;;;;14.71;61.86;101019.25;4929675;29;20047;-84
2022/05/02 03:26:24;;;;;;;11.98;10.77;;;;;;;14.99;61.91;101069.94;4920010;29;20575;-84
2022/05/02 03:28:50;;;;;;;11.52;10.40;;;;;;;14.79;62.15;101033.69;4912305;29;20414;-84
2022/05/02 03:31:17;;;;;;;12.32;11.02;;;;;;;14.63;62.08;101013.00;4912506;29;20051;-85
2022/05/02 03:33:44;;;;;;;11.73;10.63;;;;;;;15.05;61.87;101063.13;4912171;29;20114;-83
2022/05/02 03:36:12;;;;;;;11.98;10.82;;;;;;;14.65;62.47;101006.50;4910377;29;20048;-84
2022/05/02 03:38:39;;;;;;;13.15;10.80;;;;;;;14.94;62.29;101069.56;4912538;29;20056;-83
2022/05/02 03:41:06;;;;;;;11.90;10.80;;;;;;;14.57;61.92;101003.75;4929267;29;20054;-83
2022/05/02 03:43:33;;;;;;;12.50;10.90;;;;;;;14.41;62.41;100998.22;4928056;29;20054;-85
2022/05/02 03:45:59;;;;;;;12.30;10.88;;;;;;;14.58;62.21;101016.13;4915533;29;20055;-84
2022/05/02 03:48:29;;;;;;;12.45;10.75;;;;;;;14.35;62.25;100977.47;4923329;29;20051;-84
2022/05/02 03:50:56;;;;;;;12.93;11.65;;;;;;;14.77;61.67;101036.50;4906756;29;20603;-84
2022/05/02 03:53:22;;;;;;;12.60;11.40;;;;;;;14.89;62.08;101069.19;4915201;29;20039;-85
2022/05/02 03:55:49;;;;;;;12.50;11.38;;;;;;;14.61;62.48;101037.22;4930598;29;20058;-85
2022/05/02 03:58:15;;;;;;;11.93;10.63;;;;;;;14.23;61.99;100964.34;4929484;29;20315;-85
2022/05/02 04:00:42;;;;;;;14.00;11.80;;;;;;;14.68;62.15;101032.91;4912232;29;20062;-83
2022/05/02 04:03:09;;;;;;;15.95;11.70;;;;;;;14.68;61.93;101038.25;4912081;29;20055;-84
2022/05/02 04:05:36;;;;;;;12.82;11.63;;;;;;;14.68;61.63;101032.91;4927989;29;20471;-83
2022/05/02 04:08:03;;;;;;;12.55;11.13;;;;;;;14.69;61.27;101039.94;4912119;29;20462;-83
2022/05/02 04:10:29;;;;;;;12.55;11.30;;;;;;;14.38;62.05;100995.88;4929069;29;20044;-83
2022/05/02 04:12:56;;;;;;;12.65;11.55;;;;;;;14.78;62.15;101072.09;4912033;29;20497;-83
2022/05/02 04:15:23;;;;;;;11.82;10.77;;;;;;;14.73;61.92;101061.84;4912727;29;20554;-84
2022/05/02 04:17:50;;;;;;;12.20;11.10;;;;;;;14.04;62.20;100959.13;4915821;29;20051;-83
2022/05/02 04:20:16;;;;;;;11.25;10.20;;;;;;;14.56;62.24;101052.84;4915415;29;20051;-84
2022/05/02 04:22:43;;;;;;;12.27;11.05;;;;;;;14.42;62.44;101038.16;4929749;29;20338;-83
2022/05/02 04:25:10;;;;;;;11.77;10.57;;;;;;;14.26;62.20;101017.44;4913935;29;20417;-84
2022/05/02 04:27:36;;;;;;;11.00;9.93;;;;;;;14.36;62.48;101046.75;4915232;29;20474;-84
2022/05/02 04:30:04;;;;;;;11.80;10.70;;;;;;;14.62;62.22;101086.97;4915933;29;20059;-84
2022/05/02 04:32:31;;;;;;;12.80;10.60;;;;;;;14.35;62.50;101047.75;4933165;29;20428;-83
2022/05/02 04:34:58;;;;;;;11.02;9.98;;;;;;;14.44;62.78;101072.72;4914457;29;20048;-84
2022/05/02 04:37:25;;;;;;;12.20;11.02;;;;;;;14.59;62.49;101083.75;4914925;29;20134;-83
2022/05/02 04:39:52;;;;;;;11.98;9.65;;;;;;;14.19;63.01;101032.38;4914867;29;20077;-83
2022/05/02 04:42:18;;;;;;;11.20;10.10;;;;;;;13.73;62.48;100948.75;4931675;29;20055;-83
2022/05/02 04:44:45;;;;;;;11.45;10.27;;;;;;;14.24;62.63;101046.13;4914839;29;20051;-83
2022/05/02 04:47:13;;;;;;;11.70;10.50;;;;;;;13.70;62.97;100948.22;4914788;29;20081;-83
2022/05/02 04:49:40;;;;;;;11.82;10.73;;;;;;;14.18;63.07;101030.72;4918676;29;20055;-84
2022/05/02 04:52:07;;;;;;;11.95;10.77;;;;;;;14.37;62.67;101055.59;4929935;29;20060;-84
2022/05/02 04:54:34;;;;;;;11.93;10.07;;;;;;;14.19;62.66;101021.69;4930197;29;20059;-84
2022/05/02 04:57:01;;;;;;;11.45;10.20;;;;;;;14.09;62.72;100996.88;4931074;29;20051;-84
2022/05/02 04:59:29;;;;;;;11.68;10.57;;;;;;;14.35;62.51;101053.09;4931467;29;20062;-84
2022/05/02 05:01:58;;;;;;;13.25;12.05;;;;;;;14.49;62.51;101059.72;4914254;29;20529;-85
2022/05/02 05:04:26;;;;;;;11.00;9.90;;;;;;;13.82;62.09;100937.19;4915190;29;20421;-84
2022/05/02 05:06:52;;;;;;;13.30;12.00;;;;;;;14.48;61.70;101032.19;4932490;29;20078;-85
2022/05/02 05:09:19;;;;;;;11.73;10.52;;;;;;;14.39;62.26;101038.44;4916000;29;20063;-85
2022/05/02 05:11:59;;;;;;;12.02;10.73;;;;;;;14.83;61.93;101089.38;4931585;29;20055;-83
2022/05/02 05:17:33;;;;;;;12.07;10.82;;;;;;;14.48;61.41;101020.66;4931387;29;20414;-84
2022/05/02 05:20:25;;;;;;;11.85;10.68;;;;;;;14.90;61.94;101092.25;4920685;29;20074;-85
2022/05/02 05:23:24;;;;;;;12.75;11.38;;;;;;;14.87;61.57;101089.88;4946516;29;20187;-83
2022/05/02 05:26:11;;;;;;;12.88;11.57;;;;;;;14.96;61.13;101079.13;4916242;29;20047;-85
2022/05/02 05:29:06;;;;;;;16.85;11.82;;;;;;;14.51;61.21;101010.53;4969701;28;20054;-84
2022/05/02 05:31:41;;;;;;;12.93;11.63;;;;;;;15.08;60.87;101097.59;4940262;29;20051;-84
2022/05/02 05:34:16;;;;;;;11.52;10.43;;;;;;;14.81;61.57;101063.78;4933314;29;20055;-84
2022/05/02 05:37:28;;;;;;;13.02;11.68;;;;;;;14.82;61.06;101060.09;4948375;28;20059;-84
2022/05/02 05:40:07;;;;;;;12.25;11.02;;;;;;;15.14;60.88;101113.03;4948912;29;20141;-85
2022/05/02 05:43:01;;;;;;;13.20;11.85;;;;;;;15.16;60.61;101105.69;4950895;29;20062;-83
2022/05/02 05:45:31;;;;;;;16.33;11.63;;;;;;;15.15;60.51;101099.50;4932365;29;20086;-84
2022/05/02 05:48:34;;;;;;;12.02;10.80;;;;;;;15.14;60.96;101105.84;4949355;28;20082;-84
2022/05/02 05:51:15;;;;;;;15.20;11.70;;;;;;;14.69;60.54;101039.13;4932422;29;20062;-83
2022/05/02 05:53:52;;;;;;;11.43;10.30;;;;;;;15.16;60.58;101109.19;4917437;29;20063;-84
2022/05/02 05:56:30;;;;;;;13.30;10.80;;;;;;;15.17;60.04;101081.47;4914036;29;20196;-83
2022/05/02 05:59:08;;;;;;;18.52;11.23;;;;;;;15.22;60.21;101104.22;4930790;29;20071;-84
2022/05/02 06:01:58;;;;;;;11.40;10.23;;;;;;;15.28;60.17;101119.66;4935241;29;20047;-84
2022/05/02 06:04:27;;;;;;;12.75;11.32;;;;;;;15.35;59.52;101123.41;4917320;29;20060;-84
2022/05/02 06:06:54;;;;;;;11.95;10.77;;;;;;;15.09;60.35;101104.63;4913093;29;20102;-84
2022/05/02 06:09:23;;;;;;;14.52;12.15;;;;;;;15.28;60.12;101120.50;4913294;29;20052;-84
2022/05/02 06:11:51;;;;;;;13.65;12.30;;;;;;;14.90;60.29;101070.88;4929688;29;20058;-83
2022/05/02 06:14:30;;;;;;;12.98;11.10;;;;;;;15.34;60.26;101135.09;4929295;29;20059;-84
2022/05/02 06:19:47;;;;;;;18.40;11.15;;;;;;;15.11;60.11;101092.78;4935767;29;20485;-83
2022/05/02 06:22:17;;;;;;;14.80;11.20;;;;;;;15.37;60.80;101137.47;4927628;29;20051;-83
2022/05/02 06:24:46;;;;;;;17.67;11.25;;;;;;;15.04;60.10;101075.66;4929491;29;20039;-84
2022/05/02 06:27:14;;;;;;;11.85;10.65;;;;;;;15.30;59.69;101096.28;4931574;29;20081;-84
2022/05/02 06:29:41;;;;;;;12.00;10.65;;;;;;;15.02;60.18;101074.97;4921511;29;20281;-84
2022/05/02 06:32:12;;;;;;;12.93;11.63;;;;;;;15.22;60.34;101117.59;4931253;29;20058;-85
2022/05/02 06:34:40;;;;;;;11.67;10.60;;;;;;;15.25;60.99;101123.50;4948662;28;20062;-85
2022/05/02 06:37:13;;;;;;;11.57;10.52;;;;;;;15.34;61.23;101140.44;4948202;29;20866;-85
2022/05/02 06:40:02;;;;;;;12.75;11.45;;;;;;;15.37;61.36;101145.50;4922037;29;20347;-85
2022/05/02 06:42:30;;;;;;;11.98;10.93;;;;;;;15.44;60.65;101143.88;4912393;29;20063;-84
2022/05/02 06:45:03;;;;;;;12.93;10.40;;;;;;;15.63;59.66;101142.84;4912924;29;20350;-84
2022/05/02 06:48:01;;;;;;;13.13;10.95;;;;;;;15.62;59.39;101143.00;4913266;29;20066;-83
2022/05/02 06:50:31;;;;;;;11.55;10.15;;;;;;;15.25;59.38;101083.38;4929618;29;20058;-83
2022/05/02 06:53:14;;;;;;;11.55;10.50;;;;;;;15.64;59.08;101146.38;4912795;29;20290;-83
2022/05/02 06:56:10;;;;;;;12.23;10.90;;;;;;;15.59;59.43;101142.31;4930040;29;20241;-85
2022/05/02 06:58:51;;;;;;;13.45;11.63;;;;;;;15.63;59.43;101144.69;4912470;29;20051;-84
2022/05/02 07:01:37;;;;;;;;;;;;;;;15.58;59.47;101148.69;4912943;29;20051;-83
2022/05/02 07:04:20;;;;;;;11.88;10.73;;;;;;;15.65;59.70;101156.06;4928346;29;19929;-83
2022/05/02 07:06:56;;;;;;;12.35;11.00;;;;;;;15.75;59.08;101147.00;4912876;29;20107;-84
2022/05/02 07:09:52;;;;;;;17.20;11.90;;;;;;;15.72;58.63;101130.41;4911657;29;20066;-82
2022/05/02 07:12:22;;;;;;;14.93;10.90;;;;;;;15.81;58.79;101132.97;4911268;29;20056;-83
2022/05/02 07:15:10;;;;;;;12.73;10.32;;;;;;;15.89;58.96;101140.22;4911833;29;20054;-83
2022/05/02 07:17:56;;;;;;;12.10;10.80;;;;;;;15.91;58.99;101148.94;4911244;29;20463;-83
2022/05/02 07:20:49;;;;;;;11.93;10.70;;;;;;;15.91;58.64;101138.22;4911411;29;20308;-83
2022/05/02 07:23:35;;;;;;;12.18;11.00;;;;;;;16.11;58.13;101144.19;4911520;29;20498;-83
2022/05/02 07:26:07;;;;;;;13.23;11.82;;;;;;;16.13;57.71;101147.53;4909373;29;20044;-83
2022/05/02 07:28:36;;;;;;;12.70;11.02;;;;;;;15.95;58.04;101111.97;4909413;29;20060;-84
2022/05/02 07:31:07;;;;;;;12.32;11.07;;;;;;;16.09;57.52;101119.38;4919650;29;20284;-84
2022/05/02 07:33:36;;;;;;;11.82;10.57;;;;;;;16.06;57.63;101118.88;4931366;29;20513;-83
2022/05/02 07:36:04;;;;;;;12.65;11.00;;;;;;;15.27;57.77;100963.69;4948625;29;20522;-84
2022/05/02 07:38:33;;;;;;;10.70;9.70;;;;;;;15.72;57.55;101048.25;4947863;29;20043;-83
2022/05/02 07:41:23;;;;;;;12.20;11.00;;;;;;;16.24;57.17;101130.38;4931417;29;20057;-84
2022/05/02 07:44:00;;;;;;;12.23;10.55;;;;;;;16.30;57.61;101156.50;4931105;29;20532;-83
2022/05/02 07:46:37;;;;;;;13.13;11.68;;;;;;;16.05;57.44;101114.53;4948385;29;20047;-82
2022/05/02 07:49:06;;;;;;;11.85;10.15;;;;;;;16.20;57.88;101137.03;4948300;29;20066;-85
2022/05/02 07:51:43;;;;;;;12.65;11.55;;;;;;;16.02;57.33;101091.59;4933577;29;20519;-84
2022/05/02 07:54:15;;;;;;;12.35;11.20;;;;;;;16.04;57.24;101094.94;4952318;29;20203;-84
2022/05/02 07:56:46;;;;;;;14.57;11.43;;;;;;;16.35;57.62;101151.50;4950718;29;20412;-83
2022/05/02 07:59:15;;;;;;;13.30;12.00;;;;;;;15.99;57.88;101111.47;4935830;29;20055;-82
2022/05/02 08:01:43;;;;;;;12.20;11.00;;;;;;;16.11;58.10;101148.69;4915640;29;20055;-83
2022/05/02 08:04:15;;;;;;;13.07;11.10;;;;;;;16.07;58.86;101141.97;4916245;29;20056;-83
2022/05/02 08:07:11;;;;;;;13.70;12.20;;;;;;;16.15;58.70;101144.72;4917110;29;20063;-84
2022/05/02 08:10:00;;;;;;;12.90;11.65;;;;;;;15.69;60.45;101085.19;4918527;29;20536;-81
2022/05/02 08:12:40;;;;;;;13.40;12.10;;;;;;;16.16;61.19;101155.25;4935185;29;20054;-83
2022/05/02 08:15:25;;;;;;;13.57;12.27;;;;;;;16.14;61.33;101151.06;4918922;29;20075;-82
2022/05/02 08:18:23;;;;;;;13.93;12.50;;;;;;;16.20;61.33;101137.03;4940753;29;20056;-83
2022/05/02 08:21:03;;;;;;;17.00;13.60;;;;;;;16.40;60.19;101148.34;4916667;29;20058;-83
2022/05/02 08:29:26;;;;;;;14.27;12.73;;;;;;;16.52;60.40;101146.22;4934936;29;20208;-83
2022/05/02 08:32:04;;;;;;;14.57;13.07;;;;;;;16.45;59.67;101133.44;4932266;29;20058;-82
2022/05/02 08:35:03;;;;;;;15.10;13.50;;;;;;;16.72;59.80;101144.91;4938260;29;20210;-83
2022/05/02 08:37:33;;;;;;;13.82;12.38;;;;;;;16.50;59.46;101105.31;4949547;28;20051;-83
2022/05/02 08:40:25;;;;;;;17.35;12.85;;;;;;;16.88;59.25;101165.63;4952386;29;20051;-84
2022/05/02 08:43:16;;;;;;;14.32;12.93;;;;;;;17.00;59.80;101163.47;4950673;29;20062;-86
2022/05/02 08:46:03;;;;;;;15.07;10.23;;;;;;;17.07;59.55;101169.84;4935137;29;20058;-83
2022/05/02 08:48:45;;;;;;;8.88;8.07;;;;;;;17.25;58.76;101170.53;4950750;29;20467;-83
2022/05/02 08:51:49;;;;;;;9.63;8.70;;;;;;;17.34;57.27;101171.41;4934014;29;20051;-84
2022/05/02 08:54:39;;;;;;;8.70;7.90;;;;;;;17.33;57.10;101144.72;4934138;29;20055;-84
2022/05/02 08:57:21;;;;;;;7.68;7.03;;;;;;;17.45;55.47;101138.88;4915818;29;20429;-84
2022/05/02 09:00:11;;;;;;;8.15;6.97;;;;;;;17.83;55.19;101165.19;4913210;29;20040;-83
2022/05/02 09:03:31;;;;;;;9.80;8.90;;;;;;;17.92;55.56;101172.25;4911764;29;20063;-84
2022/05/02 09:06:13;;;;;;;9.30;7.63;;;;;;;17.97;55.30;101172.56;4911534;29;20076;-83
2022/05/02 09:08:52;;;;;;;;;;;;;;;18.01;55.66;101164.97;4913452;29;20070;-83
2022/05/02 09:11:34;;;;;;;6.80;6.20;;;;;;;18.18;55.96;101169.31;4912545;29;19930;-84
2022/05/02 09:14:19;;;;;;;8.25;5.50;;;;;;;18.22;54.76;101153.69;4915029;29;20499;-85
2022/05/02 09:16:46;;;;;;;5.93;5.10;;;;;;;18.48;54.22;101167.69;4923745;29;20056;-83
2022/05/02 09:19:54;;;;;;;7.57;5.25;;;;;;;18.51;53.11;101161.13;4928590;29;20080;-83
2022/05/02 09:22:58;;;;;;;5.18;4.75;;;;;;;18.62;52.74;101155.38;4931839;29;20044;-84
2022/05/02 09:25:42;;;;;;;6.10;5.60;;;;;;;18.61;52.00;101152.84;4931659;29;20055;-83
2022/05/02 09:28:20;;;;;;;8.13;5.35;;;;;;;18.73;51.85;101159.50;4924582;29;20490;-83
2022/05/02 09:31:21;;;;;;;5.55;5.03;;;;;;;18.89;51.74;101158.63;4918190;29;20043;-84
2022/05/02 09:34:26;;;;;;;5.70;5.20;;;;;;;19.06;50.91;101159.34;4934770;29;20162;-83
2022/05/02 09:37:02;;;;;;;5.88;5.35;;;;;;;19.19;50.52;101154.19;4951035;29;20055;-84
2022/05/02 09:39:52;;;;;;;6.25;5.68;;;;;;;19.00;49.86;101091.78;4933778;29;20047;-84
2022/05/02 09:42:40;;;;;;;6.63;6.05;;;;;;;18.88;50.41;101062.78;4933741;29;20513;-85
2022/05/02 09:51:16;;;;;;;9.63;6.88;;;;;;;19.90;49.01;101152.09;4950312;29;20059;-85
2022/05/02 09:54:03;;;;;;;7.25;6.22;;;;;;;19.95;48.64;101138.91;4933486;29;20061;-82
2022/05/02 09:56:47;;;;;;;6.15;5.65;;;;;;;19.83;48.79;101113.44;4950315;29;20156;-85
2022/05/02 09:59:26;;;;;;;6.82;6.05;;;;;;;20.11;49.09;101131.66;4932202;29;20043;-82
2022/05/02 10:02:02;;;;;;;8.05;7.15;;;;;;;20.30;48.07;101141.06;4913065;29;20059;-84
2022/05/02 10:04:32;;;;;;;5.60;5.05;;;;;;;20.54;47.64;101132.66;4912334;29;20055;-83
2022/05/02 10:07:18;;;;;;;6.32;5.65;;;;;;;20.73;47.60;101138.47;4895576;29;20519;-84
2022/05/02 10:10:18;;;;;;;13.88;6.40;;;;;;;20.55;47.11;101084.94;4913637;29;20056;-82
2022/05/02 10:13:10;;;;;;;6.70;6.10;;;;;;;20.90;46.62;101134.53;4905556;29;20147;-83
2022/05/02 10:16:04;;;;;;;6.82;6.15;;;;;;;21.05;46.88;101135.31;4952251;29;20384;-83
2022/05/02 10:18:44;;;;;;;5.80;5.30;;;;;;;21.22;46.03;101135.88;4935353;29;20052;-84
2022/05/02 10:21:20;;;;;;;6.55;5.95;;;;;;;21.09;46.22;101106.06;4950824;29;20047;-84
2022/05/02 10:24:09;;;;;;;6.05;5.47;;;;;;;21.30;45.66;101140.31;4946292;29;20048;-85
2022/05/02 10:27:12;;;;;;;5.72;5.28;;;;;;;21.32;45.21;101130.16;4935023;29;20063;-84
2022/05/02 10:30:11;;;;;;;4.80;4.40;;;;;;;21.21;44.39;101095.56;4930184;29;20055;-83
2022/05/02 10:32:43;;;;;;;5.35;4.80;;;;;;;21.08;44.15;101064.72;4948866;29;20059;-85
2022/05/02 10:35:13;;;;;;;5.43;5.00;;;;;;;21.35;43.67;101108.16;4949337;29;20043;-84
2022/05/02 10:38:01;;;;;;;5.28;4.78;;;;;;;21.65;43.01;101116.09;4933571;29;20058;-85
2022/05/02 10:40:42;;;;;;;8.05;5.57;;;;;;;21.90;43.41;101093.00;4934472;29;20486;-84
2022/05/02 10:43:11;;;;;;;10.80;4.85;;;;;;;22.12;43.65;101104.56;4948963;29;20354;-85
2022/05/02 10:45:40;;;;;;;6.68;4.88;;;;;;;22.24;43.59;101109.44;4932351;29;20490;-85
2022/05/02 10:48:21;;;;;;;5.45;4.95;;;;;;;22.29;42.67;101105.06;4932181;29;20142;-83
2022/05/02 10:51:11;;;;;;;9.05;5.10;;;;;;;21.96;42.54;101100.28;4934617;29;20253;-82
2022/05/02 10:54:06;;;;;;;4.20;3.90;;;;;;;21.89;42.79;101094.00;4931737;29;20114;-84
2022/05/02 10:56:45;;;;;;;5.40;4.72;;;;;;;22.12;42.65;101106.44;4932499;29;20062;-83
2022/05/02 10:59:14;;;;;;;5.07;4.68;;;;;;;22.37;43.10;101101.34;4933244;29;20059;-83
2022/05/02 11:02:03;;;;;;;7.75;5.10;;;;;;;22.58;42.72;101103.09;4912977;29;20427;-84
2022/05/02 11:05:04;;;;;;;16.77;7.43;;;;;;;22.79;42.21;101102.97;4935940;29;20057;-81
2022/05/02 11:08:01;;;;;;;4.40;4.07;;;;;;;22.62;41.75;101061.06;4911173;29;20140;-83
2022/05/02 11:10:38;;;;;;;4.40;4.00;;;;;;;21.98;42.35;100957.66;4909655;29;20139;-83
2022/05/02 11:13:11;;;;;;;4.22;3.67;;;;;;;23.02;42.29;101085.53;4894542;29;20319;-84
2022/05/02 11:16:23;;;;;;;4.15;3.75;;;;;;;23.39;39.92;101094.06;4910887;29;20147;-83
2022/05/02 11:22:13;;;;;;;4.88;4.18;;;;;;;22.78;39.53;100984.91;4909916;29;19950;-80
2022/05/02 11:25:19;;;;;;;4.72;4.30;;;;;;;22.72;39.89;100942.44;4910317;29;20048;-82
2022/05/02 11:28:13;;;;;;;4.70;4.13;;;;;;;23.36;39.22;101030.31;4912317;29;20059;-82
2022/05/02 11:30:47;;;;;;;4.18;3.88;;;;;;;23.83;39.04;101070.91;4918089;29;20052;-81
2022/05/02 11:33:42;;;;;;;4.80;4.40;;;;;;;24.16;38.90;101076.22;4934156;29;20759;-83
2022/05/02 11:36:12;;;;;;;4.38;4.07;;;;;;;24.14;39.37;101074.78;4949708;29;20454;-84
2022/05/02 11:38:50;;;;;;;5.25;4.75;;;;;;;24.33;38.83;101057.56;4932682;29;20077;-84
2022/05/02 11:41:19;;;;;;;4.10;3.72;;;;;;;24.03;39.08;100987.63;4948464;29;20061;-84
2022/05/02 11:43:48;;;;;;;8.18;4.68;;;;;;;24.06;39.46;100998.03;4946962;29;20051;-82
2022/05/02 11:46:26;;;;;;;5.00;4.60;;;;;;;24.30;39.12;101030.88;4931202;29;20050;-83
2022/05/02 11:49:33;;;;;;;5.38;4.88;;;;;;;24.61;38.55;101057.22;4931411;29;20082;-83
2022/05/02 11:52:01;;;;;;;6.80;4.88;;;;;;;24.93;38.11;101039.06;4948146;29;20063;-83
2022/05/02 11:54:35;;;;;;;5.32;4.93;;;;;;;24.61;37.82;101021.09;4947163;28;20067;-82
2022/05/02 11:57:14;;;;;;;5.10;4.55;;;;;;;24.33;38.69;101041.28;4931032;29;20052;-82
2022/05/02 11:59:53;;;;;;;10.75;5.10;;;;;;;24.05;39.53;101045.16;4908716;29;20067;-83
2022/05/02 12:02:46;;;;;;;5.85;4.15;;;;;;;23.83;39.61;101054.63;4892892;29;20060;-83
2022/05/02 12:05:52;;;;;;;4.55;4.15;;;;;;;23.64;39.08;101043.63;4893280;29;20063;-83
2022/05/02 12:08:33;;;;;;;5.05;4.20;;;;;;;23.40;39.25;101042.41;4872564;29;20041;-84
2022/05/02 12:11:08;;;;;;;5.07;4.68;;;;;;;22.63;40.60;100975.31;4880488;29;20604;-82
2022/05/02 12:13:37;;;;;;;7.95;4.43;;;;;;;22.43;41.62;100959.03;4920196;29;20099;-83
2022/05/02 12:16:09;;;;;;;5.57;4.30;;;;;;;22.81;42.03;101049.44;4927827;29;20051;-83
2022/05/02 12:18:39;;;;;;;4.95;4.55;;;;;;;22.81;42.13;101048.59;4927872;29;20110;-84
2022/05/02 12:21:08;;;;;;;5.75;5.22;;;;;;;22.51;42.05;101030.03;4929886;29;20058;-83
2022/05/02 12:23:39;;;;;;;4.97;4.50;;;;;;;22.49;42.24;101050.22;4924975;29;20047;-84